Time;durP1;ratioP1;P1;durP2;ratioP2;P2;SDS_P1;SDS_P2;PMS_P1;PMS_P2;Temp;Humidity;BMP_temperature;BMP_pressure;BME280_temperature;BME280_humidity;BME280_pressure;Samples;Min_cycle;Max_cycle;Signal;HPM_P1;HPM_P2
2022/01/25 00:29:04;;;;;;;65.10;22.75;;;4.80;99.90;;;;;;4999422;28;20062;-76
2022/01/25 00:31:32;;;;;;;63.08;23.08;;;4.80;99.90;;;;;;4993175;28;20050;-77
2022/01/25 00:33:58;;;;;;;65.15;23.75;;;4.80;99.90;;;;;;4986355;28;20077;-76
2022/01/25 00:36:27;;;;;;;69.85;24.52;;;4.80;99.90;;;;;;4965402;28;20557;-76
2022/01/25 00:38:53;;;;;;;71.40;26.15;;;5.20;99.90;;;;;;4998485;28;20058;-76
2022/01/25 00:41:21;;;;;;;66.50;24.25;;;4.80;99.90;;;;;;4969705;28;20100;-78
2022/01/25 00:43:48;;;;;;;65.07;23.42;;;4.80;99.90;;;;;;4995639;28;20046;-76
2022/01/25 00:46:15;;;;;;;65.13;25.20;;;4.80;99.90;;;;;;4996272;28;20426;-77
2022/01/25 00:48:46;;;;;;;68.35;25.63;;;4.70;99.90;;;;;;4995847;28;20137;-77
2022/01/25 00:56:21;;;;;;;67.53;25.60;;;4.80;99.90;;;;;;5002224;28;20096;-77
2022/01/25 00:58:46;;;;;;;64.82;26.00;;;5.40;99.90;;;;;;4980404;28;20042;-77
2022/01/25 01:01:12;;;;;;;66.80;25.45;;;5.40;99.90;;;;;;4966173;28;20048;-76
2022/01/25 01:03:38;;;;;;;68.22;25.23;;;5.40;99.90;;;;;;4994478;28;20042;-76
2022/01/25 01:06:06;;;;;;;67.82;25.70;;;4.80;99.90;;;;;;4976554;28;20457;-77
2022/01/25 01:08:32;;;;;;;73.75;26.85;;;4.80;99.90;;;;;;4980647;28;20064;-81
2022/01/25 01:11:00;;;;;;;65.70;25.52;;;5.20;99.90;;;;;;4997217;28;20049;-75
2022/01/25 01:13:51;;;;;;;64.93;26.08;;;4.80;99.90;;;;;;4992325;28;20042;-76
2022/01/25 01:33:08;;;;;;;67.80;23.45;;;4.70;99.90;;;;;;4947169;28;20058;-75
2022/01/25 01:43:57;;;;;;;69.53;26.58;;;4.70;99.90;;;;;;4970535;28;20531;-76
2022/01/25 01:46:36;;;;;;;67.13;24.10;;;4.70;99.90;;;;;;5007895;28;20042;-76
2022/01/25 01:49:05;;;;;;;73.20;26.50;;;4.70;99.90;;;;;;4978493;28;20068;-75
2022/01/25 01:51:35;;;;;;;74.43;27.45;;;5.20;99.90;;;;;;4992815;28;20072;-75
2022/01/25 01:54:11;;;;;;;74.13;27.10;;;4.70;99.90;;;;;;4985577;28;20428;-76
2022/01/25 01:56:38;;;;;;;74.03;26.13;;;4.70;99.90;;;;;;4996133;28;20128;-76
2022/01/25 01:59:06;;;;;;;69.22;26.92;;;4.70;99.90;;;;;;5020242;28;20050;-75
2022/01/25 02:01:33;;;;;;;72.72;26.50;;;4.90;99.90;;;;;;4998648;28;20041;-75
2022/01/25 02:04:01;;;;;;;73.70;26.10;;;4.60;99.90;;;;;;5000347;28;20054;-75
2022/01/25 02:06:27;;;;;;;72.63;27.17;;;4.70;99.90;;;;;;4991913;28;20079;-84
2022/01/25 02:08:53;;;;;;;75.00;28.38;;;4.70;99.90;;;;;;4991883;28;20056;-77
2022/01/25 02:11:20;;;;;;;72.88;27.52;;;4.70;99.90;;;;;;5006625;28;20050;-75
2022/01/25 02:13:46;;;;;;;71.28;26.33;;;4.70;99.90;;;;;;5007165;28;20088;-76
2022/01/25 02:24:29;;;;;;;75.60;28.80;;;4.70;99.90;;;;;;5008034;28;20103;-75
2022/01/25 02:26:57;;;;;;;76.45;28.25;;;4.70;99.90;;;;;;5008190;28;20042;-76
2022/01/25 02:29:23;;;;;;;76.15;27.58;;;4.70;99.90;;;;;;4991562;28;20598;-75
2022/01/25 02:31:49;;;;;;;72.00;27.13;;;5.00;99.90;;;;;;5007795;28;20046;-75
2022/01/25 02:34:15;;;;;;;69.13;25.95;;;5.00;99.90;;;;;;5009772;28;20037;-76
2022/01/25 02:36:41;;;;;;;76.90;27.60;;;4.70;99.90;;;;;;4993366;28;20406;-76
2022/01/25 02:39:06;;;;;;;71.88;26.88;;;5.00;99.90;;;;;;5015075;28;20521;-75
2022/01/25 02:41:33;;;;;;;71.05;26.90;;;5.00;99.90;;;;;;5010507;28;20046;-75
2022/01/25 02:43:59;;;;;;;75.38;28.00;;;4.70;99.90;;;;;;5021912;28;20046;-75
2022/01/25 02:49:00;;;;;;;74.05;27.33;;;4.60;99.90;;;;;;5020767;28;20479;-76
2022/01/25 02:51:29;;;;;;;74.80;26.95;;;4.70;99.90;;;;;;4996705;28;20537;-76
2022/01/25 02:53:56;;;;;;;81.13;29.55;;;5.30;99.90;;;;;;5012862;28;20049;-75
2022/01/25 02:56:23;;;;;;;75.95;27.40;;;5.20;99.90;;;;;;4997038;28;20053;-75
2022/01/25 02:58:50;;;;;;;73.32;27.85;;;4.60;99.90;;;;;;4999474;28;20483;-76
2022/01/25 03:01:16;;;;;;;73.30;27.25;;;4.70;99.90;;;;;;4994824;28;20399;-75
2022/01/25 03:03:42;;;;;;;73.57;28.20;;;4.70;99.90;;;;;;5016263;28;20117;-75
2022/01/25 03:06:09;;;;;;;80.60;27.55;;;4.70;99.90;;;;;;5011746;28;20505;-76
2022/01/25 03:08:35;;;;;;;71.97;27.60;;;4.70;99.90;;;;;;5010933;28;20062;-76
2022/01/25 03:11:01;;;;;;;79.63;27.98;;;4.60;99.90;;;;;;4995659;28;20053;-76
2022/01/25 03:13:33;;;;;;;76.35;28.98;;;4.60;99.90;;;;;;4994676;28;20128;-76
2022/01/25 03:16:17;;;;;;;70.68;26.85;;;4.60;99.90;;;;;;4996105;28;20045;-76
2022/01/25 03:18:46;;;;;;;67.97;25.38;;;4.80;99.90;;;;;;4994700;28;20042;-76
2022/01/25 03:23:45;;;;;;;77.65;28.98;;;4.60;99.90;;;;;;4994935;28;20053;-76
2022/01/25 03:26:11;;;;;;;74.30;27.08;;;4.90;99.90;;;;;;4994934;28;20471;-76
2022/01/25 03:28:37;;;;;;;71.40;27.00;;;4.60;99.90;;;;;;4994453;28;20061;-76
2022/01/25 03:31:03;;;;;;;75.68;29.13;;;4.60;99.90;;;;;;5011159;28;20042;-76
2022/01/25 03:33:29;;;;;;;80.18;29.90;;;4.80;99.90;;;;;;5010170;28;20081;-76
2022/01/25 03:35:55;;;;;;;76.40;27.85;;;4.60;99.90;;;;;;5010891;28;20073;-76
2022/01/25 03:38:21;;;;;;;79.65;28.42;;;4.60;99.90;;;;;;4994482;28;20050;-76
2022/01/25 03:40:46;;;;;;;77.88;29.55;;;5.50;99.90;;;;;;4994491;28;20061;-76
2022/01/25 03:43:18;;;;;;;70.88;26.67;;;4.60;99.90;;;;;;5010009;28;20526;-76
2022/01/25 03:45:56;;;;;;;75.10;27.45;;;4.70;99.90;;;;;;5010776;28;20140;-76
2022/01/25 03:50:50;;;;;;;80.63;30.05;;;4.60;99.90;;;;;;5010855;28;20785;-76
2022/01/25 03:53:18;;;;;;;84.25;30.20;;;4.60;99.90;;;;;;5009443;28;20041;-76
2022/01/25 03:55:45;;;;;;;74.38;28.70;;;5.50;99.90;;;;;;5003678;28;20061;-76
2022/01/25 03:58:11;;;;;;;77.10;28.88;;;4.60;99.90;;;;;;5023954;28;20079;-76
2022/01/25 04:00:39;;;;;;;77.45;27.35;;;5.50;99.90;;;;;;5026284;28;20037;-75
2022/01/25 04:03:26;;;;;;;73.47;29.50;;;4.60;99.90;;;;;;5018599;28;20202;-75
2022/01/25 04:05:53;;;;;;;80.72;27.80;;;4.60;99.90;;;;;;5015985;28;20045;-75
2022/01/25 04:08:19;;;;;;;76.88;27.30;;;5.30;99.90;;;;;;4980645;28;20088;-75
2022/01/25 04:10:46;;;;;;;77.43;29.55;;;4.60;99.90;;;;;;4996007;28;20050;-76
2022/01/25 04:13:13;;;;;;;82.00;29.17;;;4.60;99.90;;;;;;5009983;28;20050;-75
2022/01/25 04:15:42;;;;;;;81.40;28.65;;;5.40;99.90;;;;;;4994205;28;20509;-76
2022/01/25 04:18:33;;;;;;;75.85;27.63;;;4.60;99.90;;;;;;4994312;28;20056;-76
2022/01/25 04:21:12;;;;;;;81.45;28.73;;;4.60;99.90;;;;;;4984599;28;20050;-76
2022/01/25 04:26:22;;;;;;;77.40;28.65;;;4.60;99.90;;;;;;5009976;28;20341;-75
2022/01/25 04:28:48;;;;;;;81.05;29.75;;;4.80;99.90;;;;;;4993440;28;20049;-76
2022/01/25 04:31:16;;;;;;;80.65;28.92;;;4.60;99.90;;;;;;5009808;28;20060;-76
2022/01/25 04:33:55;;;;;;;73.13;27.65;;;5.60;99.90;;;;;;5009275;28;20065;-76
2022/01/25 04:36:39;;;;;;;81.63;28.92;;;4.60;99.90;;;;;;4981399;28;20037;-76
2022/01/25 04:50:06;;;;;;;80.20;29.48;;;4.90;99.90;;;;;;5009861;28;20140;-77
2022/01/25 04:52:39;;;;;;;80.65;29.23;;;4.60;99.90;;;;;;5009567;28;20053;-76
2022/01/25 04:55:25;;;;;;;78.32;28.65;;;5.10;99.90;;;;;;5009029;28;20045;-76
2022/01/25 04:58:01;;;;;;;79.93;28.15;;;4.60;99.90;;;;;;5009522;28;20064;-76
2022/01/25 05:00:28;;;;;;;83.22;29.60;;;4.90;99.90;;;;;;4994456;28;20061;-76
2022/01/25 05:02:59;;;;;;;82.25;30.40;;;4.60;99.90;;;;;;5008778;28;20560;-76
2022/01/25 05:05:33;;;;;;;75.68;27.65;;;4.60;99.90;;;;;;4992084;28;20092;-76
2022/01/25 05:08:20;;;;;;;83.93;29.30;;;5.10;99.90;;;;;;4992781;28;20525;-76
2022/01/25 05:10:53;;;;;;;79.90;27.45;;;4.60;99.90;;;;;;4992720;28;20154;-75
2022/01/25 05:16:04;;;;;;;73.85;28.23;;;5.30;99.90;;;;;;5008074;28;20121;-76
2022/01/25 05:18:43;;;;;;;80.25;29.27;;;4.60;99.90;;;;;;4992993;28;20052;-76
2022/01/25 05:23:54;;;;;;;77.50;28.40;;;4.60;99.90;;;;;;5008682;28;20058;-76
2022/01/25 05:26:20;;;;;;;80.18;30.17;;;4.60;99.90;;;;;;5008480;28;20046;-76
2022/01/25 05:28:45;;;;;;;81.47;30.02;;;4.60;99.90;;;;;;4992253;28;20049;-75
2022/01/25 05:31:11;;;;;;;79.20;29.70;;;4.60;99.90;;;;;;5008799;28;20557;-76
2022/01/25 05:33:37;;;;;;;79.78;29.70;;;4.50;99.90;;;;;;4992003;28;20065;-76
2022/01/25 05:36:03;;;;;;;84.20;31.33;;;5.50;99.90;;;;;;4991857;28;20100;-76
2022/01/25 05:38:28;;;;;;;85.10;31.50;;;4.60;99.90;;;;;;5008879;28;20089;-76
2022/01/25 05:41:00;;;;;;;86.53;32.95;;;4.70;99.90;;;;;;5008191;28;20515;-76
2022/01/25 05:46:16;;;;;;;85.47;30.80;;;5.50;99.90;;;;;;5007910;28;20046;-75
2022/01/25 05:48:43;;;;;;;;;;;4.60;99.90;;;;;;5009196;28;20062;-76
2022/01/25 05:51:10;;;;;;;79.82;28.58;;;4.60;99.90;;;;;;5007857;28;19968;-75
2022/01/25 05:53:36;;;;;;;74.05;26.60;;;4.60;99.90;;;;;;4991540;28;20056;-76
2022/01/25 05:56:03;;;;;;;81.88;30.27;;;4.60;99.90;;;;;;4991732;28;20128;-76
2022/01/25 05:58:29;;;;;;;81.65;30.42;;;4.60;99.90;;;;;;5008677;28;20139;-75
2022/01/25 06:00:54;;;;;;;83.90;30.65;;;5.40;99.90;;;;;;4975742;28;20514;-76
2022/01/25 06:03:20;;;;;;;87.05;31.55;;;4.60;99.90;;;;;;5007734;28;20042;-76
2022/01/25 06:05:46;;;;;;;87.53;31.42;;;4.60;99.90;;;;;;5007633;28;20068;-76
2022/01/25 06:08:12;;;;;;;84.20;31.30;;;4.60;99.90;;;;;;5025058;28;20048;-76
2022/01/25 06:10:37;;;;;;;86.35;31.67;;;4.60;99.90;;;;;;4975922;28;20046;-75
2022/01/25 06:13:04;;;;;;;87.10;32.45;;;4.60;99.90;;;;;;5008017;28;20124;-76
2022/01/25 06:15:30;;;;;;;84.53;30.65;;;4.60;99.90;;;;;;4991845;28;20053;-76
2022/01/25 06:17:56;;;;;;;84.43;30.40;;;4.70;99.90;;;;;;4997157;28;20502;-76
2022/01/25 06:20:22;;;;;;;79.63;29.90;;;4.60;99.90;;;;;;5014150;28;20088;-76
2022/01/25 06:22:48;;;;;;;88.10;30.70;;;4.60;99.90;;;;;;5014262;28;20042;-75
2022/01/25 06:25:15;;;;;;;84.20;31.45;;;4.60;99.90;;;;;;5014515;28;20050;-75
2022/01/25 06:27:42;;;;;;;80.82;29.77;;;5.60;99.90;;;;;;4982178;28;20052;-75
2022/01/25 06:30:10;;;;;;;87.28;30.38;;;4.60;99.90;;;;;;5013739;28;20042;-75
2022/01/25 06:32:36;;;;;;;84.25;30.20;;;4.60;99.90;;;;;;5014224;28;20137;-75
2022/01/25 06:35:06;;;;;;;85.90;30.27;;;4.60;99.90;;;;;;5014229;28;20136;-75
2022/01/25 06:37:33;;;;;;;86.93;31.90;;;4.60;99.90;;;;;;5014857;28;20060;-75
2022/01/25 06:39:58;;;;;;;85.10;29.90;;;4.60;99.90;;;;;;4981350;28;20064;-75
2022/01/25 06:42:29;;;;;;;83.07;30.02;;;5.10;99.90;;;;;;5014590;28;20486;-75
2022/01/25 06:44:58;;;;;;;80.43;29.73;;;5.10;99.90;;;;;;5006452;28;20510;-76
2022/01/25 06:47:23;;;;;;;82.82;30.08;;;4.60;99.90;;;;;;4998469;28;20078;-75
2022/01/25 06:49:49;;;;;;;81.63;31.40;;;5.50;99.90;;;;;;4998619;28;20069;-75
2022/01/25 06:52:15;;;;;;;84.72;30.33;;;5.20;99.90;;;;;;5014440;28;20060;-76
2022/01/25 06:54:40;;;;;;;91.03;31.42;;;4.60;99.90;;;;;;5013814;28;20044;-75
2022/01/25 06:57:07;;;;;;;84.40;29.83;;;4.60;99.90;;;;;;5014645;28;20483;-76
2022/01/25 06:59:33;;;;;;;88.70;30.50;;;4.60;99.90;;;;;;4982123;28;20486;-75
2022/01/25 07:01:58;;;;;;;82.85;30.10;;;4.60;99.90;;;;;;5014307;28;20042;-75
2022/01/25 07:04:24;;;;;;;80.65;29.30;;;4.60;99.90;;;;;;4997678;28;20045;-75
2022/01/25 07:06:50;;;;;;;80.20;27.88;;;4.60;99.90;;;;;;4998273;28;20042;-76
2022/01/25 07:09:16;;;;;;;83.00;29.95;;;4.60;99.90;;;;;;5014078;28;20041;-76
2022/01/25 07:11:41;;;;;;;84.00;30.23;;;5.10;99.90;;;;;;4997597;28;20060;-76
2022/01/25 07:14:07;;;;;;;80.28;28.85;;;4.60;99.90;;;;;;4996939;28;20447;-75
2022/01/25 07:16:33;;;;;;;95.63;41.08;;;4.80;99.90;;;;;;4998191;28;20103;-76
2022/01/25 07:18:59;;;;;;;81.78;30.40;;;4.80;99.90;;;;;;5014731;28;20050;-75
2022/01/25 07:21:25;;;;;;;85.43;29.35;;;5.30;99.90;;;;;;5003980;28;21264;-76
2022/01/25 07:23:50;;;;;;;80.30;28.27;;;5.50;99.90;;;;;;5020765;28;20077;-76
2022/01/25 07:26:16;;;;;;;86.43;30.27;;;5.20;99.90;;;;;;5004507;28;20042;-76
2022/01/25 07:28:43;;;;;;;87.00;30.95;;;4.60;99.90;;;;;;5003556;28;20068;-75
2022/01/25 07:31:09;;;;;;;80.93;30.25;;;4.70;99.90;;;;;;4981572;28;20049;-75
2022/01/25 07:33:35;;;;;;;76.78;28.23;;;4.70;99.90;;;;;;4997085;28;20054;-75
2022/01/25 07:36:01;;;;;;;80.35;27.63;;;4.70;99.90;;;;;;5004710;28;20514;-76
2022/01/25 07:38:27;;;;;;;84.57;29.17;;;4.60;99.90;;;;;;4997063;28;20072;-76
2022/01/25 07:40:53;;;;;;;79.40;29.02;;;4.70;99.90;;;;;;4994759;28;20498;-72
2022/01/25 07:43:18;;;;;;;87.60;30.80;;;4.60;99.90;;;;;;4993218;28;20046;-73
2022/01/25 07:45:50;;;;;;;84.28;29.48;;;4.90;99.90;;;;;;4994307;28;20498;-74
2022/01/25 07:48:16;;;;;;;83.80;29.35;;;4.70;99.90;;;;;;5010480;28;20052;-75
2022/01/25 07:50:42;;;;;;;84.75;30.52;;;4.80;99.90;;;;;;5011756;28;20423;-76
2022/01/25 07:53:07;;;;;;;80.97;27.95;;;4.70;99.90;;;;;;5025653;28;20044;-77
2022/01/25 07:55:33;;;;;;;79.45;28.10;;;4.90;99.90;;;;;;4979615;28;20526;-76
2022/01/25 07:57:59;;;;;;;85.15;29.73;;;4.70;99.90;;;;;;5012055;28;20037;-76
2022/01/25 08:00:25;;;;;;;87.35;30.92;;;4.70;99.90;;;;;;5011846;28;20396;-74
2022/01/25 08:02:51;;;;;;;89.00;31.92;;;5.10;99.90;;;;;;4996954;28;21476;-75
2022/01/25 08:05:20;;;;;;;87.28;29.38;;;4.70;99.90;;;;;;5011396;28;20399;-76
2022/01/25 08:07:46;;;;;;;83.30;30.23;;;4.90;99.90;;;;;;5012464;28;20490;-75
2022/01/25 08:10:12;;;;;;;83.55;28.70;;;4.70;99.90;;;;;;5012224;28;20103;-75
2022/01/25 08:12:38;;;;;;;78.95;28.15;;;5.60;99.90;;;;;;4995400;28;20049;-75
2022/01/25 08:15:06;;;;;;;88.18;29.88;;;5.20;99.90;;;;;;5012533;28;20050;-75
2022/01/25 08:17:32;;;;;;;83.55;29.67;;;4.70;99.90;;;;;;4999965;28;20057;-75
2022/01/25 08:19:59;;;;;;;87.35;30.42;;;4.70;99.90;;;;;;5002912;28;20042;-75
2022/01/25 08:22:25;;;;;;;87.90;30.98;;;4.80;99.90;;;;;;5009856;28;20060;-75
2022/01/25 08:24:51;;;;;;;83.03;29.48;;;4.80;99.90;;;;;;5009407;28;20126;-75
2022/01/25 08:27:20;;;;;;;81.45;28.02;;;4.70;99.90;;;;;;4993613;28;20403;-75
2022/01/25 08:29:49;;;;;;;83.97;30.20;;;5.10;99.90;;;;;;5009700;28;20618;-75
2022/01/25 08:32:15;;;;;;;77.32;26.40;;;5.10;99.90;;;;;;5010043;28;20042;-75
2022/01/25 08:34:41;;;;;;;77.22;26.35;;;5.60;99.90;;;;;;4992641;28;20044;-75
2022/01/25 08:37:07;;;;;;;84.78;28.98;;;4.80;99.90;;;;;;4993256;28;20046;-75
2022/01/25 08:39:34;;;;;;;90.85;31.20;;;5.20;99.90;;;;;;4976107;28;20184;-75
2022/01/25 08:42:00;;;;;;;88.38;29.52;;;4.80;99.90;;;;;;4993829;28;20152;-76
2022/01/25 08:44:26;;;;;;;81.15;27.55;;;4.80;99.90;;;;;;4993130;28;20128;-75
2022/01/25 08:46:53;;;;;;;85.60;29.60;;;4.80;99.90;;;;;;4993550;28;20176;-75
2022/01/25 08:49:21;;;;;;;83.88;28.13;;;4.80;99.90;;;;;;4995234;28;20045;-75
2022/01/25 08:51:48;;;;;;;80.88;27.77;;;4.80;99.90;;;;;;5013577;28;20176;-75
2022/01/25 08:54:17;;;;;;;80.88;28.20;;;4.80;99.90;;;;;;4994718;28;20050;-76
2022/01/25 08:56:43;;;;;;;88.25;30.17;;;5.20;99.90;;;;;;4994802;28;20544;-76
2022/01/25 08:59:12;;;;;;;81.35;29.55;;;4.90;99.90;;;;;;5002310;28;20061;-76
2022/01/25 09:01:37;;;;;;;77.32;27.10;;;4.90;99.90;;;;;;4994541;28;20446;-76
2022/01/25 09:04:04;;;;;;;84.10;31.42;;;4.90;99.90;;;;;;5010925;28;20104;-76
2022/01/25 09:06:30;;;;;;;85.43;29.27;;;4.90;99.90;;;;;;5012185;28;20049;-76
2022/01/25 09:09:01;;;;;;;81.60;28.15;;;4.90;99.90;;;;;;5010514;28;20122;-76
2022/01/25 09:11:27;;;;;;;82.32;30.20;;;4.90;99.90;;;;;;5014230;28;20056;-76
2022/01/25 09:13:53;;;;;;;85.57;28.90;;;5.00;99.90;;;;;;4998142;28;20045;-76
2022/01/25 09:16:19;;;;;;;85.10;29.15;;;5.00;99.90;;;;;;4994605;28;20099;-76
2022/01/25 09:18:45;;;;;;;79.20;27.70;;;5.30;99.90;;;;;;4994492;28;20108;-76
2022/01/25 09:21:11;;;;;;;86.13;29.35;;;5.30;99.90;;;;;;4991135;28;20042;-76
2022/01/25 09:23:37;;;;;;;83.65;28.33;;;5.00;99.90;;;;;;5019762;28;20045;-75
2022/01/25 09:26:03;;;;;;;81.18;28.05;;;5.00;99.90;;;;;;4994848;28;20049;-76
2022/01/25 09:28:30;;;;;;;86.80;30.98;;;5.20;99.90;;;;;;5010845;28;20049;-76
2022/01/25 09:30:56;;;;;;;87.40;29.08;;;5.00;99.90;;;;;;4994193;28;20053;-76
2022/01/25 09:33:24;;;;;;;77.90;27.80;;;5.00;99.90;;;;;;5012446;28;20137;-76
2022/01/25 09:35:51;;;;;;;89.57;32.22;;;5.00;99.90;;;;;;5012851;28;20427;-75
2022/01/25 09:38:17;;;;;;;92.90;31.85;;;5.00;99.90;;;;;;4994293;28;20077;-78
2022/01/25 09:40:43;;;;;;;86.60;28.90;;;5.30;99.90;;;;;;5009308;28;20058;-74
2022/01/25 09:43:10;;;;;;;79.05;28.33;;;5.10;99.90;;;;;;4992315;28;20129;-78
2022/01/25 09:45:37;;;;;;;87.15;32.00;;;5.20;99.90;;;;;;4991333;28;20145;-77
2022/01/25 09:48:05;;;;;;;86.57;31.20;;;5.10;99.90;;;;;;4991341;28;20133;-77
2022/01/25 09:50:31;;;;;;;84.93;30.30;;;5.10;99.90;;;;;;4968713;28;20085;-78
2022/01/25 09:53:00;;;;;;;90.88;30.35;;;5.10;99.90;;;;;;5007318;28;20046;-77
2022/01/25 09:55:29;;;;;;;85.35;29.95;;;5.10;99.90;;;;;;5007872;28;20069;-78
2022/01/25 09:57:55;;;;;;;89.07;29.75;;;5.10;99.90;;;;;;5008259;28;20104;-75
2022/01/25 10:00:24;;;;;;;87.90;29.55;;;5.10;99.90;;;;;;5008738;28;20045;-75
2022/01/25 10:03:07;;;;;;;83.32;30.70;;;5.20;99.90;;;;;;4990832;28;20065;-75
2022/01/25 10:05:37;;;;;;;87.85;29.65;;;5.10;99.90;;;;;;4992785;28;20046;-75
2022/01/25 10:08:04;;;;;;;81.38;28.75;;;5.10;99.90;;;;;;5008873;28;20037;-75
2022/01/25 10:10:30;;;;;;;87.05;29.50;;;5.10;99.90;;;;;;5008772;28;20049;-76
2022/01/25 10:13:21;;;;;;;87.57;28.23;;;5.10;99.90;;;;;;4976047;28;20053;-74
2022/01/25 10:15:49;;;;;;;82.82;28.25;;;5.10;99.90;;;;;;5007931;28;20512;-74
2022/01/25 10:18:15;;;;;;;85.35;29.35;;;5.20;99.90;;;;;;5008573;28;20077;-75
2022/01/25 10:20:45;;;;;;;81.85;29.08;;;5.10;99.90;;;;;;5008683;28;20049;-75
2022/01/25 10:23:31;;;;;;;84.65;28.30;;;5.20;99.90;;;;;;4991577;28;20099;-75
2022/01/25 10:26:00;;;;;;;97.85;35.65;;;5.20;99.90;;;;;;4991949;28;20046;-75
2022/01/25 10:28:29;;;;;;;83.88;27.40;;;5.20;99.90;;;;;;5008130;28;20524;-75
2022/01/25 10:31:03;;;;;;;87.53;28.73;;;5.40;99.90;;;;;;5008396;28;20064;-74
2022/01/25 10:33:51;;;;;;;92.30;30.05;;;5.20;99.90;;;;;;5007772;28;20050;-74
2022/01/25 10:36:19;;;;;;;94.78;31.85;;;5.20;99.90;;;;;;5008068;28;20046;-75
2022/01/25 10:38:48;;;;;;;90.50;29.10;;;5.70;99.90;;;;;;4991669;28;20049;-74
2022/01/25 10:41:22;;;;;;;82.53;26.95;;;5.20;99.90;;;;;;5008124;28;20415;-75
2022/01/25 10:43:49;;;;;;;87.72;29.67;;;5.20;99.90;;;;;;5007330;28;20057;-74
2022/01/25 10:46:30;;;;;;;84.50;30.45;;;5.60;99.90;;;;;;4991706;28;20137;-75
2022/01/25 10:49:08;;;;;;;86.60;29.27;;;5.20;99.90;;;;;;5007523;28;20053;-74
2022/01/25 10:51:46;;;;;;;86.13;30.35;;;5.20;99.90;;;;;;4991256;28;20049;-75
2022/01/25 10:54:13;;;;;;;95.95;31.38;;;5.20;99.90;;;;;;5005940;28;20091;-74
2022/01/25 10:56:53;;;;;;;90.35;30.55;;;5.30;99.90;;;;;;5007983;28;20048;-74
2022/01/25 10:59:28;;;;;;;91.22;31.25;;;5.20;99.90;;;;;;4991820;28;20141;-75
2022/01/25 11:02:00;;;;;;;87.63;29.80;;;5.60;99.90;;;;;;5008170;28;20050;-74
2022/01/25 11:04:31;;;;;;;90.15;29.40;;;5.30;99.90;;;;;;5009736;28;20394;-74
2022/01/25 11:07:04;;;;;;;83.15;28.73;;;5.70;99.90;;;;;;5011637;28;20049;-74
2022/01/25 11:09:37;;;;;;;87.18;29.35;;;5.30;99.90;;;;;;5010330;28;20445;-75
2022/01/25 11:12:09;;;;;;;88.90;30.15;;;5.80;99.90;;;;;;5010850;28;20067;-74
2022/01/25 11:14:50;;;;;;;86.50;28.88;;;5.30;99.90;;;;;;5011203;28;20064;-75
2022/01/25 11:17:27;;;;;;;82.40;28.38;;;5.30;99.90;;;;;;5009557;28;20081;-75
2022/01/25 11:19:54;;;;;;;87.53;28.48;;;5.30;99.90;;;;;;4978521;28;20395;-74
2022/01/25 11:22:20;;;;;;;86.90;29.38;;;5.20;99.90;;;;;;4993632;28;20488;-75
2022/01/25 11:24:52;;;;;;;89.03;28.92;;;5.30;99.90;;;;;;5011591;28;20037;-75
2022/01/25 11:27:18;;;;;;;;;;;5.30;99.90;;;;;;4995376;28;20114;-75
2022/01/25 11:29:45;;;;;;;88.45;27.45;;;5.30;99.90;;;;;;5010855;28;19921;-75
2022/01/25 11:32:14;;;;;;;83.28;26.48;;;5.30;99.90;;;;;;5013755;28;20088;-75
2022/01/25 11:34:43;;;;;;;89.88;28.45;;;5.30;99.90;;;;;;4996702;28;20053;-75
2022/01/25 11:37:09;;;;;;;81.28;27.73;;;5.60;99.90;;;;;;5012662;28;20125;-75
2022/01/25 11:39:39;;;;;;;86.38;29.15;;;5.40;99.90;;;;;;5012543;28;20057;-74
2022/01/25 11:42:14;;;;;;;87.60;29.00;;;5.40;99.90;;;;;;4994736;28;20132;-75
2022/01/25 11:44:58;;;;;;;87.72;29.88;;;5.40;99.90;;;;;;5009893;28;20418;-78
2022/01/25 11:47:35;;;;;;;90.32;28.50;;;5.60;99.90;;;;;;5016181;28;20064;-79
2022/01/25 11:50:04;;;;;;;93.63;31.30;;;5.80;99.90;;;;;;5007554;28;20042;-75
2022/01/25 11:52:31;;;;;;;85.72;28.40;;;5.40;99.90;;;;;;5017331;28;20046;-76
2022/01/25 11:55:32;;;;;;;82.90;28.17;;;5.40;99.90;;;;;;4978104;28;20081;-73
2022/01/25 11:58:10;;;;;;;88.25;29.52;;;5.40;99.90;;;;;;4989387;28;20200;-79
2022/01/25 12:00:48;;;;;;;88.80;29.65;;;6.10;99.90;;;;;;5011216;28;20402;-81
2022/01/25 12:03:35;;;;;;;83.60;29.17;;;6.10;99.90;;;;;;5009539;28;20371;-80
2022/01/25 12:06:20;;;;;;;87.95;28.45;;;5.30;99.90;;;;;;5010683;28;20049;-80
2022/01/25 12:09:07;;;;;;;85.07;26.65;;;5.40;99.90;;;;;;4994433;28;20100;-79
2022/01/25 12:11:48;;;;;;;85.88;27.42;;;5.40;99.90;;;;;;5025769;28;20042;-77
2022/01/25 12:14:41;;;;;;;85.80;27.00;;;5.40;99.90;;;;;;5009561;28;20546;-76
2022/01/25 12:17:11;;;;;;;92.70;33.78;;;5.30;99.90;;;;;;5026991;28;20064;-81
2022/01/25 12:19:48;;;;;;;90.07;28.52;;;5.40;99.90;;;;;;5009605;28;20481;-74
2022/01/25 12:25:22;;;;;;;85.18;25.52;;;5.40;99.90;;;;;;5017345;28;20457;-74
2022/01/25 12:27:55;;;;;;;93.28;30.95;;;5.40;99.90;;;;;;5011502;28;20193;-74
2022/01/25 12:30:26;;;;;;;97.20;29.38;;;5.40;99.90;;;;;;5012136;28;20100;-74
2022/01/25 12:33:01;;;;;;;91.40;29.65;;;5.40;99.90;;;;;;4993642;28;20076;-74
2022/01/25 12:35:49;;;;;;;90.65;29.92;;;5.60;99.90;;;;;;5011318;28;20050;-74
2022/01/25 12:38:38;;;;;;;90.68;30.33;;;5.50;99.90;;;;;;5020223;28;20417;-75
2022/01/25 12:41:15;;;;;;;91.32;31.85;;;5.40;99.90;;;;;;5006651;28;20111;-74
2022/01/25 12:43:53;;;;;;;89.20;29.23;;;5.90;99.90;;;;;;5005909;28;20132;-74
2022/01/25 12:46:20;;;;;;;89.43;29.98;;;5.50;99.90;;;;;;4992584;28;20184;-74
2022/01/25 12:48:50;;;;;;;90.47;30.55;;;5.50;99.90;;;;;;4992921;28;20052;-74
2022/01/25 12:51:23;;;;;;;86.90;30.63;;;5.60;99.90;;;;;;5006460;28;20053;-74
2022/01/25 12:53:53;;;;;;;89.65;28.27;;;5.50;99.90;;;;;;4992305;28;20049;-74
2022/01/25 12:56:34;;;;;;;87.03;29.80;;;5.50;99.90;;;;;;4992929;28;20494;-74
2022/01/25 12:59:06;;;;;;;79.93;26.63;;;5.60;99.90;;;;;;4993158;28;20128;-76
2022/01/25 13:01:36;;;;;;;91.53;29.38;;;6.30;99.90;;;;;;4993302;28;20042;-76
2022/01/25 13:04:04;;;;;;;94.50;30.45;;;5.60;99.90;;;;;;5008951;28;20509;-75
2022/01/25 13:06:38;;;;;;;86.03;29.27;;;5.60;99.90;;;;;;5025783;28;20528;-74
2022/01/25 13:09:12;;;;;;;97.00;31.23;;;5.50;99.90;;;;;;5009503;28;20034;-80
2022/01/25 13:12:09;;;;;;;75.72;26.02;;;5.50;99.90;;;;;;4991751;28;20184;-75
2022/01/25 13:17:25;;;;;;;86.18;27.65;;;5.50;99.90;;;;;;5021449;28;20115;-80
2022/01/25 13:20:02;;;;;;;92.70;30.85;;;6.30;99.90;;;;;;5018142;28;20049;-77
2022/01/25 13:22:35;;;;;;;97.55;30.25;;;5.50;99.90;;;;;;5020975;28;20093;-75
2022/01/25 13:27:46;;;;;;;87.07;29.73;;;5.60;99.90;;;;;;5004690;28;20156;-75
2022/01/25 13:32:59;;;;;;;95.90;30.98;;;5.60;99.90;;;;;;4996390;28;20081;-76
2022/01/25 13:38:11;;;;;;;86.07;27.75;;;6.40;99.90;;;;;;5010689;28;20050;-76
2022/01/25 13:41:00;;;;;;;87.95;29.92;;;5.50;99.90;;;;;;4993560;28;20049;-76
2022/01/25 13:46:19;;;;;;;;;;;5.50;99.90;;;;;;5019147;28;20042;-76
2022/01/25 13:48:47;;;;;;;86.05;27.05;;;5.50;99.90;;;;;;5007019;28;19929;-76
2022/01/25 13:51:17;;;;;;;86.20;29.50;;;5.60;99.90;;;;;;4968411;28;20080;-76
2022/01/25 13:53:49;;;;;;;87.72;27.65;;;6.40;99.90;;;;;;4993510;28;20081;-76
2022/01/25 13:56:16;;;;;;;90.63;29.25;;;5.50;99.90;;;;;;4993873;28;20494;-77
2022/01/25 13:58:46;;;;;;;82.55;28.08;;;4.80;99.90;;;;;;5002029;28;20053;-80
2022/01/25 14:01:13;;;;;;;86.88;27.45;;;5.50;99.90;;;;;;5010689;28;20064;-80
2022/01/25 14:03:56;;;;;;;79.78;25.27;;;6.00;99.90;;;;;;4993437;28;20470;-79
2022/01/25 14:06:30;;;;;;;86.50;27.42;;;5.40;99.90;;;;;;5010023;28;20053;-80
2022/01/25 14:09:01;;;;;;;88.03;27.65;;;5.40;99.90;;;;;;5015149;28;20049;-77
2022/01/25 14:25:09;;;;;;;93.05;27.63;;;6.00;99.90;;;;;;5011831;28;20045;-78
2022/01/25 14:27:50;;;;;;;81.03;25.15;;;5.40;99.90;;;;;;5001648;28;20076;-79
2022/01/25 14:30:18;;;;;;;90.78;28.60;;;5.30;99.90;;;;;;5013397;28;20112;-79
2022/01/25 14:32:44;;;;;;;87.80;27.50;;;5.30;99.90;;;;;;5009083;28;20483;-79
2022/01/25 14:35:12;;;;;;;86.68;27.50;;;5.30;99.90;;;;;;5010297;28;20057;-81
2022/01/25 14:37:47;;;;;;;92.13;30.42;;;5.30;99.90;;;;;;4985067;28;20046;-81
2022/01/25 14:40:16;;;;;;;93.90;28.48;;;5.60;99.90;;;;;;5021150;28;20045;-81
2022/01/25 14:42:45;;;;;;;102.38;31.42;;;5.40;99.90;;;;;;5014173;28;20445;-82
2022/01/25 14:45:19;;;;;;;94.93;29.70;;;5.60;99.90;;;;;;5012998;28;20096;-77
2022/01/25 14:47:47;;;;;;;90.80;28.90;;;5.30;99.90;;;;;;4995478;28;20119;-77
2022/01/25 14:50:25;;;;;;;94.22;30.85;;;5.30;99.90;;;;;;5011085;28;20058;-76
2022/01/25 14:53:04;;;;;;;87.32;29.58;;;5.30;99.90;;;;;;5026376;28;20120;-76
2022/01/25 14:55:31;;;;;;;88.38;30.35;;;5.30;99.90;;;;;;4997995;28;20045;-76
2022/01/25 15:00:54;;;;;;;94.15;30.02;;;5.30;99.90;;;;;;5014047;28;20397;-76